Flugwetter

METAR EDDW
2024/03/03 06:20 EDDW 030620Z AUTO 08009KT 6000 NCD 05/04 Q1003 TEMPO 4500 BR
TAF EDDW
2024/03/03 06:27 TAF EDDW 030500Z 0306/0406 09005KT 8000 NSC PROB30 TEMPO 0306/0308 4500 BR BECMG 0307/0309 10010KT BECMG 0318/0320 07005KT TEMPO 0402/0404 3000 BR BECMG 0404/0406 1200 BR BKN001 TEMPO 0404/0406 0500 FG
METAR EDDH
2024/03/03 06:20 EDDH 030620Z AUTO 08005KT 9000 NSC 05/05 Q1004 TEMPO 4000 BR
TAF EDDH
2024/03/03 06:27 TAF EDDH 030500Z 0306/0412 10006KT 8000 NSC TEMPO 0306/0308 3000 BR PROB30 TEMPO 0307/0310 BKN004 BECMG 0308/0310 09011KT BECMG 0317/0319 07006KT TEMPO 0322/0409 3000 BR BKN003 PROB30 TEMPO 0400/0408 1200 BR BKN001 TEMPO 0409/0412 BKN005
METAR VRMM
2024/03/03 06:00 VRMM 030600Z 08004KT 9999 FEW017 FEW018CB SCT022 BKN120 31/27 Q1012 CB NNE NOSIG
TAF VRMM
2024/03/03 06:39 TAF VRMM 030500Z 0306/0412 08008KT 9999 FEW017TCU SCT120 TEMPO 0306/0312 5000 SHRA FEW017CB

Quelle:

Bereitgestellt von den Servern der NOAA tgftp.nws.noaa.gov
Alle Angaben ohne Gewähr